Airfield :
LOGIN :

Register | Disclaimer

   EN    FR    IT 

 










Legend :    VFR   Marginal VFR   IFR   Intensive IFR   Very Intensive IFR
Visi :
Ceiling :
>= 8 km
>= 3000ft
5 to 8 km
1000 to 3000 ft
1500m to 5 km
500 to 1000 ft
800 to 1500m
200 to 500 ft
< 800m
< 200 ft
Symbols :   Thunderstorms  Fog  Heavy snow  Heavy precipitations  Wind > 20 kt
SIGMETs :     Misc.  Thunderstorms  Icing  Turbulence  Mountain Waves  Volcanic Ashes






- Airport Elevation : 2096 ft
- IATA code : AUR


LFLW - Aurillac

CURRENT METAR :
  • 122030Z AUTO 29001KT 7000 -RA ////// 05/05 Q1006

EXPIRED METARs :
  • 122000Z AUTO VRB02KT 9999 ////// 05/05 Q1006
  • 121930Z AUTO 00000KT 9000 ////// 05/05 Q1006
  • 121900Z AUTO VRB02KT 8000 ////// 05/05 Q1006
  • 121830Z AUTO VRB02KT 9000 ////// 05/04 Q1006
  • 121800Z AUTO VRB02KT 9999 ////// 05/04 Q1006

TAF TAF LFLW
Valid from the 12 at 15:00 until the 13 at 00:00 UTC


121400Z 1215/1224 29005KT 9999 BKN010
PROB40
TEMPO 1215/1221 3000 SHRA BKN004 SCT025TCU
BECMG 1221/1223 3000 BR OVC003
PROB40
TEMPO 1221/1224 0500 FG VV///



MET'MAP, your aeronautical weather chart ! - Copyright ORBIFLY December 2007 - Disclaimer

ORBIFLY MET'MAP TEAM :

Programming & Development : Alexandra Zaïnal
Concept & Development : Baudouin d'Aumeries
Co-Development & Prog : Marc-Olivier Méhu
Technical & hardware support : Manuel Goepfert

Contact : metmap@orbifly.com




SOURCES & CREDITS :

   NOAA